Warnock, OH (43967)

6:17 PM EST on December 09, 2016 (GMT -0500)
Morristown, Ohio | | Change Station

Elev 1283 ft 40.08 °N, 81.06 °W | Updated 7 seconds ago

Overcast
Overcast
24.4 °F
Feels Like 24 °F
N
0.0
Wind Variable Wind from West

Today
High -- | Low -- °F
--% Chance of Precip.
Yesterday
High -- | Low -- °F
Precip. -- in
Pressure 30.49 in
Visibility 5.0 miles
Clouds Overcast 2300 ft
Windchill 24 °F
Dew Point 23 °F
Humidity 98%
Rainfall 0.00 in
Snow Depth Not available.
7:34 AM 4:58 PM
Waxing Gibbous, 78% visible
METAR KHLG 092253Z 27012KT 5SM -SN OVC023 M04/M08 A3042 RMK AO2 SLP323 P0000 T10441078
Pressure 30.49 in
Visibility 5.0 miles
Clouds Overcast 2300 ft
Windchill 24 °F
Dew Point 23 °F
Humidity 98%
Rainfall 0.00 in
Snow Depth Not available.
7:34 AM 4:58 PM
Waxing Gibbous, 78% visible
METAR KHLG 092253Z 27012KT 5SM -SN OVC023 M04/M08 A3042 RMK AO2 SLP323 P0000 T10441078

10-Day Weather Forecast

Almanac

Astronomy

Dec. 09, 2016 Rise Set
Actual Time
Civil Twilight
Nautical Twilight
Astronomical Twilight
Moon
Length of Visible Light
Length of Day
Tomorrow will be .
, % of the Moon is Illuminated

Today's Extremes

State Highs State Lows

Community

WunderPhotos

Upload Photos

1,956,535 photos uploaded!

WunderBlog® & News

Nearby

Air Quality

  Air Quality AQ Index Pollutant
Not available.

Snow Depth

Station Depth Elevation

Earthquake Activity

City Distance Mag. Time & Date
Minimum magnitude displayed is 2.5.

Coastal Water Temperatures

Place Temperature

Stations

Nearby Weather Stations

Station Location Temp. Windchill Dew Point Humidity Wind Precip. Elev Updated Type
                   

Watches & Warnings

There are currently no watches in effect.